METAR Data
IDs: Format: Raw Decoded Include TAF

Data at: 1124 UTC 26 Sep 2018

KSBS 261115Z AUTO 00000KT 10SM CLR 02/M05 A3029 RMK AO1 T00231054
KSBS 261055Z AUTO 00000KT 10SM CLR 02/M05 A3028 RMK AO1 T00191048
KSBS 261035Z AUTO 00000KT 10SM CLR 02/M04 A3028 RMK AO1 T00181041
KSBS 261015Z AUTO 15004KT 10SM CLR 02/M04 A3027 RMK AO1 T00211044
KSBS 260955Z AUTO 10003KT 10SM CLR 03/M06 A3027 RMK AO1 T00291059
KSBS 260935Z AUTO 33003KT 10SM CLR 03/M06 A3027 RMK AO1 T00321057
KSBS 260915Z AUTO 00000KT 10SM CLR 03/M04 A3026 RMK AO1 T00321045
KSBS 260855Z AUTO 09003KT 10SM CLR 03/M04 A3027 RMK AO1 T00331043
KSBS 260835Z AUTO 06003KT 10SM CLR 04/M06 A3027 RMK AO1 T00381062
KSBS 260815Z AUTO 35004KT 10SM CLR 04/M06 A3027 RMK AO1 T00411057
KSBS 260755Z AUTO 00000KT 10SM CLR 05/M06 A3026 RMK AO1 T00491056
KSBS 260735Z AUTO 00000KT 10SM CLR 04/M04 A3027 RMK AO1 T00361045
KSBS 260715Z AUTO 17003KT 10SM CLR 04/M04 A3026 RMK AO1 T00421044
KSBS 260655Z AUTO 32003KT 10SM CLR 05/M04 A3027 RMK AO1 T00481042
KSBS 260635Z AUTO 00000KT 10SM CLR 05/M04 A3027 RMK AO1 T00501043
KSBS 260615Z AUTO 00000KT 10SM CLR 06/M05 A3027 RMK AO1 T00581052
KSBS 260555Z AUTO 28003KT 10SM CLR 06/M05 A3027 RMK AO1 T00631047
KSBS 260535Z AUTO 00000KT 10SM CLR 06/M04 A3028 RMK AO1 T00621042
KSBS 260515Z AUTO 00000KT 10SM CLR 07/M04 A3029 RMK AO1 T00651044
KSBS 260455Z AUTO 00000KT 10SM CLR 07/M05 A3028 RMK AO1 T00721049
KSBS 260435Z AUTO 00000KT 10SM CLR 07/M05 A3028 RMK AO1 T00741048
KSBS 260415Z AUTO 00000KT 10SM CLR 08/M05 A3028 RMK AO1 T00751050
KSBS 260355Z AUTO 00000KT 10SM CLR 08/M05 A3028 RMK AO1 T00751050
KSBS 260335Z AUTO 00000KT 10SM CLR 09/M06 A3028 RMK AO1 T00851056
KSBS 260315Z AUTO 00000KT 10SM CLR 09/M06 A3028 RMK AO1 T00901065
KSBS 260255Z AUTO 00000KT 10SM CLR 09/M07 A3027 RMK AO1 T00941066
KSBS 260235Z AUTO 00000KT 10SM CLR 10/M06 A3027 RMK AO1 T00951058
KSBS 260215Z AUTO 12003KT 10SM CLR 10/M06 A3027 RMK AO1 T00991062
KSBS 260155Z AUTO 14005KT 10SM CLR 10/M07 A3027 RMK AO1 T01041071
KSBS 260135Z AUTO 09003KT 10SM CLR 11/M06 A3027 RMK AO1 T01111065
KSBS 260115Z AUTO 00000KT 10SM CLR 12/M08 A3027 RMK AO1 T01191076
KSBS 260055Z AUTO 20003KT 10SM CLR 12/M08 A3026 RMK AO1 T01241084
KSBS 260035Z AUTO 23003KT 10SM CLR 13/M08 A3026 RMK AO1 T01311082
KSBS 260015Z AUTO 25004KT 10SM CLR 15/M09 A3026 RMK AO1 T01451087
KSBS 252355Z AUTO 25006KT 10SM CLR 15/M09 A3026 RMK AO1 T01541086
KSBS 252335Z AUTO 00000KT 10SM CLR 16/M07 A3025 RMK AO1 T01571074
KSBS 252315Z AUTO 00000KT 10SM CLR 16/M06 A3025 RMK AO1 T01561065
KSBS 252255Z AUTO 00000KT 10SM CLR 16/M06 A3025 RMK AO1 T01561063
KSBS 252235Z AUTO 24006KT 10SM CLR 16/M06 A3024 RMK AO1 T01571065
KSBS 252215Z AUTO 22007KT 10SM CLR 15/M08 A3024 RMK AO1 T01541078
KSBS 252155Z AUTO 28003KT 10SM CLR 15/M09 A3025 RMK AO1 T01541086
KSBS 252135Z AUTO 25007KT 230V290 10SM CLR 15/M08 A3025 RMK AO1 T01541085
KSBS 252115Z AUTO 27003KT 10SM CLR 15/M09 A3026 RMK AO1 T01501088
KSBS 252055Z AUTO 22003KT 10SM CLR 14/M09 A3026 RMK AO1 T01431088
KSBS 252035Z AUTO 25005KT 10SM CLR 14/M09 A3026 RMK AO1 T01411089
KSBS 252015Z AUTO 23003KT 10SM CLR 14/M08 A3028 RMK AO1 T01371085
KSBS 251955Z AUTO 00000KT 10SM CLR 13/M09 A3028 RMK AO1 T01331089
KSBS 251935Z AUTO 00000KT 10SM CLR 13/M09 A3029 RMK AO1 T01271090
KSBS 251915Z AUTO 22006KT 10SM CLR 12/M09 A3030 RMK AO1 T01241089
KSBS 251855Z AUTO 26007KT 10SM CLR 12/M08 A3031 RMK AO1 T01201084
KSBS 251835Z AUTO 00000KT 10SM CLR 11/M07 A3031 RMK AO1 T01121071
KSBS 251815Z AUTO 25004KT 10SM CLR 11/M07 A3032 RMK AO1 T01091074
KSBS 251755Z AUTO 26005KT 10SM CLR 10/M06 A3032 RMK AO1 T01031060
KSBS 251735Z AUTO 22004KT 10SM CLR 10/M05 A3032 RMK AO1 T00971049
KSBS 251715Z AUTO 29003KT 10SM CLR 09/M04 A3032 RMK AO1 T00901045
KSBS 251655Z AUTO 00000KT 10SM CLR 08/M03 A3032 RMK AO1 T00791035
KSBS 251635Z AUTO 21004KT 10SM CLR 07/M03 A3032 RMK AO1 T00731029
KSBS 251615Z AUTO 00000KT 10SM CLR 06/M04 A3033 RMK AO1 T00591037
KSBS 251555Z AUTO 00000KT 10SM CLR 05/M03 A3034 RMK AO1 T00471034
KSBS 251535Z AUTO 00000KT 10SM CLR 03/M04 A3034 RMK AO1 T00341039
KSBS 251515Z AUTO 00000KT 10SM CLR 03/M04 A3034 RMK AO1 T00251042
KSBS 251455Z AUTO 00000KT 10SM CLR 01/M04 A3033 RMK AO1 T00131044
KSBS 251435Z AUTO 00000KT 10SM CLR 00/M05 A3033 RMK AO1 T00011046
KSBS 251415Z AUTO 00000KT 10SM CLR 00/M05 A3033 RMK AO1 T10031046
KSBS 251355Z AUTO 00000KT 10SM CLR M01/M05 A3032 RMK AO1 T10101050
KSBS 251335Z AUTO 00000KT 10SM CLR M01/M06 A3032 RMK AO1 T10111057
KSBS 251315Z AUTO 00000KT 10SM CLR M01/M06 A3032 RMK AO1 T10111057
KSBS 251255Z AUTO 00000KT 10SM CLR M01/M06 A3031 RMK AO1 T10131056
KSBS 251235Z AUTO 00000KT 10SM CLR M01/M06 A3030 RMK AO1 T10081056
KSBS 251215Z AUTO 00000KT 10SM CLR 00/M06 A3029 RMK AO1 T10031056
KSBS 251155Z AUTO 00000KT 10SM CLR 00/M06 A3029 RMK AO1 T00001059
KSBS 251135Z AUTO 00000KT 10SM CLR 00/M06 A3029 RMK AO1 T10021059
KSBS 251115Z AUTO 00000KT 10SM CLR 00/M06 A3028 RMK AO1 T00041057
KSBS 251055Z AUTO 00000KT 10SM CLR 02/M06 A3027 RMK AO1 T00171060
KSBS 251035Z AUTO 00000KT 10SM CLR 02/M07 A3026 RMK AO1 T00221066
KSBS 251015Z AUTO 00000KT 10SM CLR 03/M07 A3026 RMK AO1 T00261066
KSBS 250955Z AUTO 00000KT 10SM CLR 03/M07 A3025 RMK AO1 T00281069
KSBS 250935Z AUTO 00000KT 10SM CLR 03/M07 A3024 RMK AO1 T00311072
KSBS 250915Z AUTO 09003KT 10SM CLR 03/M07 A3024 RMK AO1 T00321075
KSBS 250855Z AUTO 09003KT 10SM CLR 04/M08 A3023 RMK AO1 T00431081
KSBS 250835Z AUTO 00000KT 10SM CLR 05/M08 A3023 RMK AO1 T00531085
KSBS 250815Z AUTO 00000KT 10SM CLR 05/M08 A3023 RMK AO1 T00491080
KSBS 250755Z AUTO 00000KT 10SM CLR 05/M08 A3022 RMK AO1 T00511084
KSBS 250735Z AUTO 00000KT 10SM CLR 06/M09 A3021 RMK AO1 T00561086
KSBS 250715Z AUTO 09003KT 10SM CLR 06/M08 A3020 RMK AO1 T00611085
KSBS 250655Z AUTO 00000KT 10SM CLR 06/M08 A3019 RMK AO1 T00641081
KSBS 250635Z AUTO 25003KT 10SM CLR 07/M08 A3018 RMK AO1 T00741082
KSBS 250615Z AUTO 00000KT 10SM CLR 08/M07 A3018 RMK AO1 T00791074
KSBS 250555Z AUTO 24006KT 10SM CLR 08/M07 A3018 RMK AO1 T00841070
KSBS 250535Z AUTO 24006KT 10SM CLR 09/M07 A3016 RMK AO1 T00921068
KSBS 250515Z AUTO 24004KT 10SM CLR 11/M08 A3016 RMK AO1 T01051081
KSBS 250455Z AUTO 28010G16KT 10SM BKN120 12/M11 A3015 RMK AO1 T01231110
KSBS 250435Z AUTO 28011G15KT 10SM OVC110 13/M10 A3014 RMK AO1 T01281101
KSBS 250415Z AUTO 29010G16KT 10SM OVC110 13/M07 A3012 RMK AO1 T01261071
KSBS 250355Z AUTO 29005KT 10SM OVC110 13/M06 A3012 RMK AO1 T01311061
KSBS 250335Z AUTO 29009KT 10SM BKN120 14/M07 A3010 RMK AO1 T01381066
KSBS 250315Z AUTO 29008G14KT 10SM BKN110 14/M05 A3008 RMK AO1 T01401051
KSBS 250255Z AUTO 30008KT 10SM OVC110 14/M03 A3006 RMK AO1 T01411031
KSBS 250235Z AUTO 29006KT 10SM BKN110 14/M01 A3004 RMK AO1 T01431013
KSBS 250215Z AUTO 00000KT 10SM BKN110 15/M02 A3003 RMK AO1 T01521016
KSBS 250155Z AUTO 00000KT 10SM SCT110 16/M02 A3002 RMK AO1 T01551016
KSBS 250135Z AUTO 24004KT 10SM SCT110 16/M02 A3001 RMK AO1 T01571021
KSBS 250115Z AUTO 00000KT 10SM BKN110 17/M03 A3000 RMK AO1 T01701027
KSBS 250055Z AUTO 28009KT 10SM BKN110 18/M03 A3000 RMK AO1 T01781029
KSBS 250035Z AUTO 27011G18KT 10SM SCT110 19/M03 A2999 RMK AO1 T01851035
KSBS 250015Z AUTO 29011G21KT 10SM SCT110 19/M04 A2998 RMK AO1 T01901038
KSBS 242355Z AUTO 29011G16KT 10SM SCT110 20/M03 A2998 RMK AO1 T01961035
KSBS 242335Z AUTO 29014G21KT 10SM CLR 20/M04 A2998 RMK AO1 T02011042